createdAt,value
2022-11-21T00:01:23.264Z,5.00
2022-11-21T00:03:51.149Z,5.00
2022-11-21T00:06:19.547Z,5.00
2022-11-21T00:08:47.222Z,5.00
2022-11-21T00:11:14.762Z,4.90
2022-11-21T00:13:43.104Z,5.00
2022-11-21T00:16:12.982Z,5.00
2022-11-21T00:18:40.643Z,5.00
2022-11-21T00:21:10.667Z,5.00
2022-11-21T00:23:38.210Z,5.00
2022-11-21T00:26:07.122Z,5.00
2022-11-21T00:28:35.577Z,5.00
2022-11-21T00:31:04.643Z,4.90
2022-11-21T00:33:34.476Z,5.00
2022-11-21T00:36:09.664Z,5.00
2022-11-21T00:38:40.916Z,5.00
2022-11-21T00:41:08.179Z,4.90
2022-11-21T00:43:36.528Z,5.00
2022-11-21T00:46:04.913Z,5.00
2022-11-21T00:48:34.532Z,5.00
2022-11-21T00:51:04.116Z,5.00
2022-11-21T00:53:37.646Z,5.00
2022-11-21T00:56:05.207Z,5.00
2022-11-21T00:58:35.070Z,5.00
2022-11-21T01:03:49.983Z,5.00
2022-11-21T01:06:17.272Z,5.00
2022-11-21T01:08:45.833Z,5.00
2022-11-21T01:11:16.444Z,5.00
2022-11-21T01:13:44.465Z,4.90
2022-11-21T01:16:20.269Z,4.90
2022-11-21T01:18:47.717Z,4.90
2022-11-21T01:21:22.781Z,4.90
2022-11-21T01:23:51.173Z,4.90
2022-11-21T01:26:21.162Z,4.80
2022-11-21T01:28:48.676Z,4.80
2022-11-21T01:31:20.054Z,4.90
2022-11-21T01:33:48.225Z,4.90
2022-11-21T01:36:23.994Z,4.90
2022-11-21T01:38:54.439Z,4.90
2022-11-21T01:41:25.051Z,4.90
2022-11-21T01:43:52.720Z,4.80
2022-11-21T01:46:21.940Z,4.90
2022-11-21T01:48:51.969Z,4.90
2022-11-21T01:51:29.290Z,4.90
2022-11-21T01:54:02.523Z,4.90
2022-11-21T01:56:34.029Z,4.90
2022-11-21T01:59:07.097Z,4.90
2022-11-21T02:01:39.298Z,4.90
2022-11-21T02:04:07.882Z,4.90
2022-11-21T02:06:37.698Z,4.90
2022-11-21T02:09:07.394Z,4.90
2022-11-21T02:11:50.755Z,4.80
2022-11-21T02:14:18.480Z,4.80
2022-11-21T02:16:46.772Z,4.80
2022-11-21T02:19:53.654Z,4.80
2022-11-21T02:22:35.416Z,4.80
2022-11-21T02:25:24.806Z,4.80
2022-11-21T02:28:08.902Z,4.80
2022-11-21T02:30:39.871Z,4.80
2022-11-21T02:33:09.035Z,4.80
2022-11-21T02:35:36.424Z,4.80
2022-11-21T02:38:46.223Z,4.80
2022-11-21T02:41:26.960Z,4.80
2022-11-21T02:44:04.632Z,4.70
2022-11-21T02:46:33.740Z,4.80
2022-11-21T02:49:04.785Z,4.70
2022-11-21T02:51:33.719Z,4.80
2022-11-21T02:54:00.838Z,4.70
2022-11-21T02:56:29.224Z,4.70
2022-11-21T02:58:56.837Z,4.70
2022-11-21T03:01:25.100Z,4.70
2022-11-21T03:03:53.612Z,4.70
2022-11-21T03:06:21.725Z,4.80
2022-11-21T03:08:52.215Z,4.80
2022-11-21T03:11:19.672Z,4.70
2022-11-21T03:13:49.536Z,4.60
2022-11-21T03:16:16.936Z,4.60
2022-11-21T03:18:44.531Z,4.60
2022-11-21T03:21:12.808Z,4.60
2022-11-21T03:23:39.979Z,4.60
2022-11-21T03:26:07.545Z,4.50
2022-11-21T03:28:35.195Z,4.50
2022-11-21T03:31:05.276Z,4.50
2022-11-21T03:33:33.795Z,4.50
2022-11-21T03:36:02.470Z,4.50
2022-11-21T03:38:29.570Z,4.50
2022-11-21T03:40:57.434Z,4.50
2022-11-21T03:43:24.717Z,4.50
2022-11-21T03:45:54.970Z,4.40
2022-11-21T03:48:22.157Z,4.40
2022-11-21T03:50:49.452Z,4.40
2022-11-21T03:53:16.782Z,4.40
2022-11-21T03:55:44.424Z,4.40
2022-11-21T03:58:11.721Z,4.30
2022-11-21T04:00:39.204Z,4.30
2022-11-21T04:03:06.251Z,4.30
2022-11-21T04:05:34.256Z,4.30
2022-11-21T04:08:02.557Z,4.20
2022-11-21T04:10:29.860Z,4.20
2022-11-21T04:12:57.349Z,4.30
2022-11-21T04:15:24.520Z,4.30
2022-11-21T04:17:53.254Z,4.30
2022-11-21T04:20:24.879Z,4.20
2022-11-21T04:22:52.493Z,4.30
2022-11-21T04:25:19.966Z,4.20
2022-11-21T04:27:47.107Z,4.30
2022-11-21T04:30:14.772Z,4.30
2022-11-21T04:32:42.908Z,4.30
2022-11-21T04:35:13.707Z,4.30
2022-11-21T04:37:41.146Z,4.30
2022-11-21T04:40:08.931Z,4.30
2022-11-21T04:42:36.377Z,4.30
2022-11-21T04:45:07.552Z,4.30
2022-11-21T04:47:43.931Z,4.30
2022-11-21T04:50:13.173Z,4.30
2022-11-21T04:52:42.195Z,4.40
2022-11-21T04:55:10.652Z,4.30
2022-11-21T04:57:38.018Z,4.30
2022-11-21T05:00:05.741Z,4.30
2022-11-21T05:02:34.337Z,4.40
2022-11-21T05:05:02.313Z,4.40
2022-11-21T05:07:33.613Z,4.40
2022-11-21T05:10:03.560Z,4.40
2022-11-21T05:12:49.672Z,4.40
2022-11-21T05:15:23.199Z,4.40
2022-11-21T05:17:52.538Z,4.40
2022-11-21T05:20:20.632Z,4.50
2022-11-21T05:22:52.603Z,4.40
2022-11-21T05:25:19.902Z,4.50
2022-11-21T05:27:48.370Z,4.50
2022-11-21T05:30:16.135Z,4.50
2022-11-21T05:32:44.411Z,4.50
2022-11-21T05:35:11.803Z,4.50
2022-11-21T05:37:39.072Z,4.50
2022-11-21T05:40:07.456Z,4.50
2022-11-21T05:42:59.157Z,4.50
2022-11-21T05:45:26.472Z,4.60
2022-11-21T05:47:54.783Z,4.60
2022-11-21T05:50:22.400Z,4.60
2022-11-21T05:52:49.558Z,4.60
2022-11-21T05:55:17.396Z,4.60
2022-11-21T05:57:45.571Z,4.60
2022-11-21T06:00:13.840Z,4.60
2022-11-21T06:03:00.356Z,4.70
2022-11-21T06:05:28.013Z,4.70
2022-11-21T06:07:55.939Z,4.70
2022-11-21T06:10:23.673Z,4.70
2022-11-21T06:12:51.780Z,4.70
2022-11-21T06:15:19.098Z,4.70
2022-11-21T06:17:46.653Z,4.70
2022-11-21T06:20:14.576Z,4.60
2022-11-21T06:22:42.032Z,4.70
2022-11-21T06:25:17.044Z,4.60
2022-11-21T06:27:44.952Z,4.60
2022-11-21T06:30:15.485Z,4.60
2022-11-21T06:32:53.711Z,4.60
2022-11-21T06:35:22.118Z,4.60
2022-11-21T06:37:58.369Z,4.50
2022-11-21T06:40:26.214Z,4.50
2022-11-21T06:42:53.493Z,4.50
2022-11-21T06:45:20.967Z,4.50
2022-11-21T06:47:48.806Z,4.50
2022-11-21T06:50:16.497Z,4.60
2022-11-21T06:52:45.074Z,4.50
2022-11-21T06:55:15.356Z,4.60
2022-11-21T06:57:44.878Z,4.60
2022-11-21T07:00:18.187Z,4.60
2022-11-21T07:02:45.644Z,4.60
2022-11-21T07:05:13.396Z,4.70
2022-11-21T07:07:41.034Z,4.60
2022-11-21T07:10:08.711Z,4.60
2022-11-21T07:12:55.456Z,4.60
2022-11-21T07:15:23.361Z,4.60
2022-11-21T07:17:50.655Z,4.60
2022-11-21T07:20:18.789Z,4.70
2022-11-21T07:22:46.003Z,4.70
2022-11-21T07:25:13.355Z,4.60
2022-11-21T07:27:41.394Z,4.70
2022-11-21T07:30:09.522Z,4.70
2022-11-21T07:32:36.673Z,4.60
2022-11-21T07:35:04.689Z,4.60
2022-11-21T07:37:35.949Z,4.70
2022-11-21T07:40:04.799Z,4.70
2022-11-21T07:42:35.568Z,4.70
2022-11-21T07:45:06.217Z,4.70
2022-11-21T07:47:35.378Z,4.80
2022-11-21T07:50:08.348Z,4.80
2022-11-21T07:52:36.128Z,4.80
2022-11-21T07:55:06.558Z,4.80
2022-11-21T07:57:36.199Z,4.80
2022-11-21T08:00:07.244Z,4.80
2022-11-21T08:02:34.681Z,4.80
2022-11-21T08:05:05.115Z,4.80
2022-11-21T08:07:33.964Z,4.90
2022-11-21T08:10:02.110Z,4.90
2022-11-21T08:12:29.740Z,4.90
2022-11-21T08:14:57.116Z,5.00
2022-11-21T08:17:26.699Z,5.00
2022-11-21T08:19:54.004Z,5.00
2022-11-21T08:22:21.325Z,5.10
2022-11-21T08:24:48.437Z,5.10
2022-11-21T08:27:21.015Z,5.10
2022-11-21T08:29:48.642Z,5.10
2022-11-21T08:32:16.191Z,5.10
2022-11-21T08:34:44.717Z,5.20
2022-11-21T08:37:12.095Z,5.20
2022-11-21T08:39:39.258Z,5.20
2022-11-21T08:42:07.348Z,5.30
2022-11-21T08:44:35.471Z,5.30
2022-11-21T08:47:05.207Z,5.40
2022-11-21T08:49:35.360Z,5.40
2022-11-21T08:52:03.580Z,5.50
2022-11-21T08:54:30.863Z,5.50
2022-11-21T08:57:03.643Z,5.60
2022-11-21T08:59:33.790Z,5.60
2022-11-21T09:02:02.448Z,5.60
2022-11-21T09:04:29.899Z,5.60
2022-11-21T09:06:57.737Z,5.70
2022-11-21T09:09:26.413Z,5.70
2022-11-21T09:11:57.219Z,5.70
2022-11-21T09:14:42.905Z,5.80
2022-11-21T09:17:33.676Z,5.90
2022-11-21T09:20:02.763Z,6.00
2022-11-21T09:22:30.280Z,6.10
2022-11-21T09:25:02.566Z,6.20
2022-11-21T09:27:32.352Z,6.20
2022-11-21T09:29:59.535Z,6.30
2022-11-21T09:32:27.515Z,6.30
2022-11-21T09:34:58.404Z,6.30
2022-11-21T09:37:28.576Z,6.30
2022-11-21T09:40:10.069Z,6.40
2022-11-21T09:42:53.935Z,6.50
2022-11-21T09:45:32.229Z,6.60
2022-11-21T09:48:01.025Z,6.60
2022-11-21T09:50:32.681Z,6.70
2022-11-21T09:53:35.410Z,6.80
2022-11-21T09:56:14.450Z,6.80
2022-11-21T09:58:49.217Z,6.80
2022-11-21T10:01:19.485Z,6.90
2022-11-21T10:03:49.538Z,6.90
2022-11-21T10:06:27.720Z,6.90
2022-11-21T10:09:16.263Z,7.00
2022-11-21T10:12:32.170Z,7.00
2022-11-21T10:15:08.624Z,7.00
2022-11-21T10:18:04.449Z,7.10
2022-11-21T10:20:32.351Z,7.10
2022-11-21T10:23:41.792Z,7.20
2022-11-21T10:26:32.764Z,7.30
2022-11-21T10:29:07.356Z,7.30
2022-11-21T10:31:39.392Z,7.40
2022-11-21T10:34:38.836Z,7.50
2022-11-21T10:37:20.086Z,7.50
2022-11-21T10:39:50.933Z,7.50
2022-11-21T10:42:29.155Z,7.60
2022-11-21T10:45:19.692Z,7.60
2022-11-21T10:47:50.669Z,7.60
2022-11-21T10:50:34.768Z,7.70
2022-11-21T10:53:39.550Z,7.70
2022-11-21T10:56:17.414Z,7.80
2022-11-21T10:58:48.496Z,8.00
2022-11-21T11:01:21.952Z,8.30
2022-11-21T23:14:04.513Z,8.70
